Time;durP1;ratioP1;P1;durP2;ratioP2;P2;SDS_P1;SDS_P2;PMS_P1;PMS_P2;Temp;Humidity;BMP_temperature;BMP_pressure;BME280_temperature;BME280_humidity;BME280_pressure;Samples;Min_cycle;Max_cycle;Signal;HPM_P1;HPM_P2
2022/07/12 00:01:36;;;;;;;1.20;1.10;;;19.20;99.90;;;;;;5102227;28;20016;-34
2022/07/12 00:04:01;;;;;;;1.30;1.20;;;19.20;99.90;;;;;;5102890;28;20397;-34
2022/07/12 00:06:27;;;;;;;1.15;1.00;;;19.10;99.90;;;;;;5101340;28;20130;-35
2022/07/12 00:08:52;;;;;;;1.50;1.10;;;19.10;99.90;;;;;;5103100;28;20538;-34
2022/07/12 00:11:18;;;;;;;0.90;0.90;;;19.10;99.90;;;;;;5102120;28;20047;-34
2022/07/12 00:13:44;;;;;;;0.95;0.95;;;19.10;99.90;;;;;;5101550;28;20012;-34
2022/07/12 00:16:09;;;;;;;1.40;1.00;;;19.10;99.90;;;;;;5102227;28;20453;-35
2022/07/12 00:18:35;;;;;;;0.90;0.90;;;19.10;99.90;;;;;;5101679;28;20046;-34
2022/07/12 00:21:00;;;;;;;0.90;0.85;;;19.00;99.90;;;;;;5108129;28;20051;-39
2022/07/12 00:23:26;;;;;;;0.88;0.88;;;19.10;99.90;;;;;;5109715;28;20028;-35
2022/07/12 00:25:51;;;;;;;1.45;1.08;;;19.10;99.90;;;;;;5109772;28;20020;-34
2022/07/12 00:28:17;;;;;;;1.10;1.00;;;19.00;99.90;;;;;;5108223;28;20292;-34
2022/07/12 00:30:42;;;;;;;0.90;0.90;;;19.00;99.90;;;;;;5108939;28;20035;-33
2022/07/12 00:33:08;;;;;;;1.40;0.90;;;19.00;99.90;;;;;;5109225;28;20114;-33
2022/07/12 00:35:34;;;;;;;1.05;0.95;;;19.00;99.90;;;;;;5108154;28;20028;-34
2022/07/12 00:37:59;;;;;;;0.90;0.90;;;18.90;99.90;;;;;;5109336;28;20012;-34
2022/07/12 00:40:25;;;;;;;0.90;0.88;;;18.90;99.90;;;;;;5108247;28;20442;-35
2022/07/12 00:42:51;;;;;;;1.55;1.20;;;18.90;99.90;;;;;;5108515;28;20015;-35
2022/07/12 00:45:16;;;;;;;1.17;1.00;;;18.90;99.90;;;;;;5108561;28;20059;-35
2022/07/12 00:47:44;;;;;;;1.25;1.15;;;18.90;99.90;;;;;;5108596;28;20077;-34
2022/07/12 00:50:19;;;;;;;2.03;1.15;;;18.80;99.90;;;;;;5108702;28;20375;-34
2022/07/12 00:52:47;;;;;;;2.05;1.95;;;18.80;99.90;;;;;;5107902;28;20063;-34
2022/07/12 00:55:13;;;;;;;1.55;1.10;;;18.80;99.90;;;;;;5107818;28;20028;-34
2022/07/12 00:57:40;;;;;;;2.83;1.23;;;18.80;99.90;;;;;;5108017;28;20077;-35
2022/07/12 01:00:08;;;;;;;2.20;1.25;;;18.80;99.90;;;;;;5108092;28;20023;-34
2022/07/12 01:02:35;;;;;;;1.30;1.20;;;18.80;99.90;;;;;;5107582;28;20034;-35
2022/07/12 01:05:01;;;;;;;1.38;1.27;;;18.70;99.90;;;;;;5107846;28;20364;-33
2022/07/12 01:07:26;;;;;;;1.48;1.08;;;18.70;99.90;;;;;;5108097;28;20558;-33
2022/07/12 01:09:53;;;;;;;2.67;1.30;;;18.70;99.90;;;;;;5107952;28;20024;-35
2022/07/12 01:12:20;;;;;;;2.60;1.10;;;18.70;99.90;;;;;;5107876;28;20043;-33
2022/07/12 01:14:47;;;;;;;1.40;1.20;;;18.60;99.90;;;;;;5107639;28;20493;-34
2022/07/12 01:17:13;;;;;;;1.40;1.30;;;18.60;99.90;;;;;;5107463;28;20282;-33
2022/07/12 01:19:39;;;;;;;1.20;1.10;;;18.60;99.90;;;;;;5107874;28;20012;-35
2022/07/12 01:22:10;;;;;;;1.50;1.25;;;18.60;99.90;;;;;;5107760;28;20474;-35
2022/07/12 01:24:36;;;;;;;1.90;1.17;;;18.60;99.90;;;;;;5106786;28;20016;-34
2022/07/12 01:27:03;;;;;;;1.73;1.25;;;18.60;99.90;;;;;;5107953;28;20038;-35
2022/07/12 01:29:30;;;;;;;1.48;1.30;;;18.50;99.90;;;;;;5106799;28;20031;-34
2022/07/12 01:32:24;;;;;;;1.42;1.33;;;18.50;99.90;;;;;;5107293;28;20042;-36
2022/07/12 01:34:42;;;;;;;1.60;1.20;;;18.50;99.90;;;;;;5106231;28;20108;-35
2022/07/12 01:37:08;;;;;;;2.50;1.45;;;18.50;99.90;;;;;;5107498;28;20447;-34
2022/07/12 01:39:34;;;;;;;1.45;1.35;;;18.50;99.90;;;;;;5105718;28;20035;-36
2022/07/12 01:41:59;;;;;;;2.55;1.17;;;18.40;99.90;;;;;;5104968;28;20026;-34
2022/07/12 01:44:25;;;;;;;1.30;1.20;;;18.40;99.90;;;;;;5106657;28;20019;-34
2022/07/12 01:46:50;;;;;;;1.60;1.50;;;18.40;99.90;;;;;;5107977;28;20554;-34
2022/07/12 01:49:16;;;;;;;1.35;1.25;;;18.40;99.90;;;;;;5107226;28;20462;-35
2022/07/12 01:51:41;;;;;;;1.55;1.40;;;18.40;99.90;;;;;;5106361;28;20031;-34
2022/07/12 01:54:07;;;;;;;1.85;1.33;;;18.40;99.90;;;;;;5107484;28;20136;-35
2022/07/12 01:56:33;;;;;;;1.88;1.40;;;18.40;99.90;;;;;;5107223;28;20031;-35
2022/07/12 01:58:59;;;;;;;1.50;1.40;;;18.30;99.90;;;;;;5087469;28;20480;-36
2022/07/12 02:01:25;;;;;;;2.60;1.50;;;18.30;99.90;;;;;;5101192;28;20401;-36
2022/07/12 02:03:51;;;;;;;1.70;1.60;;;18.30;99.90;;;;;;5108167;28;20058;-35
2022/07/12 02:06:16;;;;;;;1.60;1.50;;;18.30;99.90;;;;;;5105944;28;20084;-35
2022/07/12 02:08:42;;;;;;;1.65;1.50;;;18.30;99.90;;;;;;5107404;28;20482;-34
2022/07/12 02:11:08;;;;;;;1.70;1.60;;;18.30;99.90;;;;;;5107647;28;20150;-35
2022/07/12 02:13:33;;;;;;;3.40;1.60;;;18.20;99.90;;;;;;5106366;28;20577;-34
2022/07/12 02:15:59;;;;;;;2.15;1.50;;;18.20;99.90;;;;;;5106952;28;20482;-34
2022/07/12 02:18:24;;;;;;;1.67;1.58;;;18.20;99.90;;;;;;5106568;28;20028;-35
2022/07/12 02:20:50;;;;;;;3.53;1.50;;;18.20;99.90;;;;;;5106288;28;20031;-35
2022/07/12 02:23:15;;;;;;;2.03;1.90;;;18.20;99.90;;;;;;5106509;28;20037;-35
2022/07/12 02:25:41;;;;;;;2.17;1.80;;;18.10;99.90;;;;;;5107371;28;20049;-34
2022/07/12 02:28:07;;;;;;;2.05;1.90;;;18.10;99.90;;;;;;5107027;28;20475;-34
2022/07/12 02:30:32;;;;;;;2.00;1.90;;;18.10;99.90;;;;;;5106281;28;20134;-35
2022/07/12 02:32:57;;;;;;;1.75;1.65;;;18.10;99.90;;;;;;5106708;28;20051;-34
2022/07/12 02:35:24;;;;;;;2.33;1.90;;;18.10;99.90;;;;;;5105995;28;20043;-34
2022/07/12 02:37:50;;;;;;;1.95;1.80;;;18.10;99.90;;;;;;5106852;28;20072;-35
2022/07/12 02:43:00;;;;;;;1.83;1.73;;;18.10;99.90;;;;;;5106450;28;20510;-34
2022/07/12 02:45:25;;;;;;;2.17;1.98;;;18.00;99.90;;;;;;5105646;28;20035;-35
2022/07/12 02:47:51;;;;;;;2.35;2.10;;;18.00;99.90;;;;;;5106152;28;20024;-36
2022/07/12 02:50:16;;;;;;;2.00;1.90;;;18.00;99.90;;;;;;5106105;28;20031;-34
2022/07/12 02:52:42;;;;;;;3.17;1.77;;;18.00;99.90;;;;;;5105764;28;20032;-34
2022/07/12 02:55:08;;;;;;;1.98;1.88;;;18.00;99.90;;;;;;5105797;28;20092;-35
2022/07/12 02:57:33;;;;;;;2.40;2.20;;;17.90;99.90;;;;;;5105584;28;20476;-35
2022/07/12 02:59:59;;;;;;;2.35;2.15;;;17.90;99.90;;;;;;5106269;28;20059;-34
2022/07/12 03:02:24;;;;;;;3.70;2.20;;;17.90;99.90;;;;;;5105014;28;20106;-33
2022/07/12 03:04:50;;;;;;;2.40;2.30;;;17.90;99.90;;;;;;5106209;28;20096;-34
2022/07/12 03:07:15;;;;;;;2.28;2.13;;;17.90;99.90;;;;;;5105713;28;20053;-34
2022/07/12 03:09:41;;;;;;;2.53;2.30;;;17.90;99.90;;;;;;5105314;28;20123;-34
2022/07/12 03:12:07;;;;;;;2.40;2.20;;;17.90;99.90;;;;;;5106895;28;20028;-35
2022/07/12 03:14:32;;;;;;;2.40;2.20;;;17.90;99.90;;;;;;5105275;28;20482;-35
2022/07/12 03:16:58;;;;;;;2.53;2.33;;;17.90;99.90;;;;;;5105795;28;20031;-35
2022/07/12 03:19:23;;;;;;;2.85;2.58;;;17.80;99.90;;;;;;5105322;28;20031;-34
2022/07/12 03:21:49;;;;;;;2.60;2.40;;;17.80;99.90;;;;;;5105736;28;20495;-34
2022/07/12 03:24:14;;;;;;;2.67;2.45;;;17.80;99.90;;;;;;5105163;28;20028;-34
2022/07/12 03:26:40;;;;;;;3.17;2.55;;;17.80;99.90;;;;;;5105975;28;20476;-34
2022/07/12 03:29:05;;;;;;;2.65;2.35;;;17.80;99.90;;;;;;5105696;28;20040;-33
2022/07/12 03:31:31;;;;;;;2.65;2.45;;;17.80;99.90;;;;;;5104406;28;20039;-34
2022/07/12 03:33:56;;;;;;;3.00;2.70;;;17.80;99.90;;;;;;5106207;28;20044;-34
2022/07/12 03:36:22;;;;;;;2.50;2.30;;;17.70;99.90;;;;;;5105855;28;20349;-33
2022/07/12 03:38:47;;;;;;;2.88;2.30;;;17.70;99.90;;;;;;5104944;28;20458;-33
2022/07/12 03:41:13;;;;;;;2.83;2.63;;;17.70;99.90;;;;;;5105940;28;20471;-33
2022/07/12 03:43:38;;;;;;;3.63;2.42;;;17.70;99.90;;;;;;5104428;28;20027;-33
2022/07/12 03:46:04;;;;;;;2.80;2.60;;;17.80;99.90;;;;;;5105661;28;20019;-33
2022/07/12 03:48:29;;;;;;;3.10;2.90;;;17.70;99.90;;;;;;5106054;28;20030;-35
2022/07/12 03:50:55;;;;;;;3.00;2.80;;;17.70;99.90;;;;;;5104822;28;20800;-34
2022/07/12 03:53:21;;;;;;;3.28;2.75;;;17.70;99.90;;;;;;5105741;28;20035;-34
2022/07/12 03:55:47;;;;;;;2.97;2.78;;;17.70;99.90;;;;;;5105144;28;20023;-35
2022/07/12 03:58:13;;;;;;;3.33;2.80;;;17.70;99.90;;;;;;5107575;28;20024;-35
2022/07/12 04:00:40;;;;;;;3.13;2.83;;;17.70;99.90;;;;;;5109542;28;20375;-33
2022/07/12 04:03:05;;;;;;;2.90;2.70;;;17.70;99.90;;;;;;5110079;28;20020;-34
2022/07/12 04:05:31;;;;;;;3.25;2.95;;;17.70;99.90;;;;;;5109332;28;20026;-35
2022/07/12 04:07:56;;;;;;;3.55;2.60;;;17.70;99.90;;;;;;5109665;28;20032;-34
2022/07/12 04:10:22;;;;;;;2.90;2.60;;;17.70;99.90;;;;;;5109528;28;20027;-34
2022/07/12 04:12:48;;;;;;;2.85;2.65;;;17.70;99.90;;;;;;5108569;28;20103;-35
2022/07/12 04:15:13;;;;;;;3.05;2.85;;;17.70;99.90;;;;;;5109159;28;20049;-35
2022/07/12 04:17:39;;;;;;;3.03;2.83;;;17.70;99.90;;;;;;5109206;28;20070;-34
2022/07/12 04:20:06;;;;;;;3.10;2.83;;;17.70;99.90;;;;;;5108200;28;20059;-34
2022/07/12 04:22:31;;;;;;;3.40;3.15;;;17.70;99.90;;;;;;5108543;28;20487;-34
2022/07/12 04:25:00;;;;;;;3.45;2.78;;;17.70;99.90;;;;;;5109195;28;20068;-33
2022/07/12 04:27:28;;;;;;;3.22;2.92;;;17.60;99.90;;;;;;5108110;28;20023;-35
2022/07/12 04:29:54;;;;;;;2.97;2.67;;;17.70;99.90;;;;;;5109152;28;20494;-34
2022/07/12 04:32:19;;;;;;;2.97;2.72;;;17.70;99.90;;;;;;5108350;28;20499;-33
2022/07/12 04:34:45;;;;;;;3.58;3.33;;;17.70;99.90;;;;;;5108316;28;20031;-34
2022/07/12 04:37:10;;;;;;;3.15;2.95;;;17.70;99.90;;;;;;5108639;28;20031;-34
2022/07/12 04:39:36;;;;;;;2.80;2.60;;;17.70;99.90;;;;;;5108543;28;20522;-34
2022/07/12 04:42:02;;;;;;;3.08;2.78;;;17.70;99.90;;;;;;5108126;28;20061;-34
2022/07/12 04:44:27;;;;;;;3.30;3.05;;;17.70;99.90;;;;;;5108284;28;20032;-34
2022/07/12 04:46:53;;;;;;;3.08;2.88;;;17.70;99.90;;;;;;5107983;28;20395;-34
2022/07/12 04:49:18;;;;;;;3.22;3.00;;;17.70;99.90;;;;;;5108385;28;20024;-34
2022/07/12 04:51:45;;;;;;;3.17;2.90;;;17.70;99.90;;;;;;5108533;28;20343;-34
2022/07/12 04:54:10;;;;;;;3.20;2.75;;;17.80;99.90;;;;;;5108127;28;20097;-34
2022/07/12 04:56:36;;;;;;;3.60;3.30;;;17.70;99.90;;;;;;5107880;28;20060;-36
2022/07/12 04:59:01;;;;;;;3.17;2.88;;;17.80;99.90;;;;;;5108565;28;20506;-35
2022/07/12 05:01:30;;;;;;;3.90;3.05;;;17.80;99.90;;;;;;5106986;28;20058;-34
2022/07/12 05:03:56;;;;;;;3.67;3.38;;;17.80;99.90;;;;;;5108626;28;20086;-35
2022/07/12 05:06:22;;;;;;;4.03;3.72;;;17.90;99.90;;;;;;5107976;28;20051;-34
2022/07/12 05:08:48;;;;;;;3.20;3.00;;;17.80;99.90;;;;;;5106841;28;20095;-34
2022/07/12 05:11:14;;;;;;;3.60;3.30;;;17.80;99.90;;;;;;5108107;28;20130;-34
2022/07/12 05:13:39;;;;;;;3.58;3.28;;;17.80;99.90;;;;;;5108386;28;20019;-34
2022/07/12 05:16:08;;;;;;;4.07;3.38;;;17.80;99.90;;;;;;5107885;28;20016;-33
2022/07/12 05:18:34;;;;;;;3.40;3.20;;;17.80;99.90;;;;;;5107648;28;20067;-34
2022/07/12 05:21:00;;;;;;;3.20;2.97;;;17.90;99.90;;;;;;5108461;28;20070;-34
2022/07/12 05:23:26;;;;;;;3.78;3.38;;;17.90;99.90;;;;;;5107093;28;20023;-34
2022/07/12 05:25:52;;;;;;;3.30;3.10;;;17.90;99.90;;;;;;5087889;28;20024;-34
2022/07/12 05:28:18;;;;;;;4.15;3.83;;;17.90;99.90;;;;;;5101775;28;20474;-33
2022/07/12 05:30:43;;;;;;;3.85;3.55;;;17.90;99.90;;;;;;5106688;28;20039;-35
2022/07/12 05:33:09;;;;;;;4.43;4.13;;;18.00;99.90;;;;;;5107240;28;20500;-34
2022/07/12 05:35:35;;;;;;;5.05;4.65;;;18.00;99.90;;;;;;5107615;28;20425;-34
2022/07/12 05:38:01;;;;;;;4.90;4.57;;;18.10;99.90;;;;;;5106908;28;20451;-34
2022/07/12 05:40:26;;;;;;;5.43;4.93;;;18.10;99.90;;;;;;5107088;28;20028;-35
2022/07/12 05:42:52;;;;;;;4.43;4.13;;;18.10;99.90;;;;;;5108028;28;20069;-34
2022/07/12 05:45:18;;;;;;;5.30;4.80;;;18.20;99.90;;;;;;5106363;28;20065;-35
2022/07/12 05:47:43;;;;;;;4.50;4.10;;;18.20;99.90;;;;;;5107550;28;20335;-35
2022/07/12 05:50:09;;;;;;;4.40;4.00;;;18.30;99.90;;;;;;5103994;28;20103;-34
2022/07/12 05:55:18;;;;;;;4.53;4.20;;;18.40;99.90;;;;;;5104318;28;20042;-34
2022/07/12 05:57:44;;;;;;;4.10;3.80;;;18.50;99.90;;;;;;5105655;28;20391;-35
2022/07/12 06:00:10;;;;;;;4.40;4.10;;;18.50;99.90;;;;;;5105321;28;20019;-34
2022/07/12 06:02:36;;;;;;;4.65;4.25;;;18.60;99.90;;;;;;5106387;28;20031;-34
2022/07/12 06:05:01;;;;;;;4.50;4.10;;;18.60;99.90;;;;;;5105516;28;20047;-35
2022/07/12 06:07:27;;;;;;;5.45;4.80;;;18.60;99.90;;;;;;5105537;28;20047;-35
2022/07/12 06:09:52;;;;;;;4.30;3.97;;;18.70;99.90;;;;;;5105680;28;20576;-34
2022/07/12 06:12:18;;;;;;;4.45;4.13;;;18.70;99.90;;;;;;5105541;28;20430;-34
2022/07/12 06:14:44;;;;;;;4.13;3.83;;;18.80;99.90;;;;;;5105121;27;20475;-35
2022/07/12 06:17:09;;;;;;;3.40;3.10;;;18.90;99.90;;;;;;5106397;28;20455;-34
2022/07/12 06:19:35;;;;;;;4.30;4.00;;;19.00;99.90;;;;;;5104066;28;20022;-34
2022/07/12 06:22:00;;;;;;;3.97;3.67;;;19.00;99.90;;;;;;5104955;28;20047;-34
2022/07/12 06:24:26;;;;;;;5.68;3.80;;;19.10;99.90;;;;;;5105787;28;20058;-34
2022/07/12 06:26:52;;;;;;;4.32;4.03;;;19.20;99.90;;;;;;5105516;28;20023;-34
2022/07/12 06:29:17;;;;;;;4.32;4.03;;;19.20;99.90;;;;;;5105649;28;20031;-35
2022/07/12 06:31:43;;;;;;;3.45;3.25;;;19.30;99.90;;;;;;5106226;28;20445;-35
2022/07/12 06:34:08;;;;;;;4.00;3.70;;;19.40;99.90;;;;;;5104514;28;20027;-35
2022/07/12 06:36:34;;;;;;;3.63;3.33;;;19.40;99.90;;;;;;5105117;28;20027;-35
2022/07/12 06:38:59;;;;;;;3.60;3.30;;;19.50;99.90;;;;;;5106628;28;20015;-35
2022/07/12 06:41:25;;;;;;;3.70;3.40;;;19.50;99.90;;;;;;5104780;28;20666;-34
2022/07/12 06:43:50;;;;;;;6.10;3.83;;;19.50;99.90;;;;;;5106266;28;20050;-37
2022/07/12 06:46:16;;;;;;;4.03;3.72;;;19.60;99.90;;;;;;5105674;28;20077;-36
2022/07/12 06:48:41;;;;;;;4.40;4.10;;;19.60;99.90;;;;;;5104810;28;20366;-35
2022/07/12 06:51:07;;;;;;;3.65;3.35;;;19.70;99.90;;;;;;5105769;28;20032;-35
2022/07/12 06:53:32;;;;;;;3.85;3.55;;;19.70;99.90;;;;;;5105046;28;20498;-35
2022/07/12 06:55:58;;;;;;;3.22;3.03;;;19.70;99.90;;;;;;5104838;28;20027;-35
2022/07/12 06:58:23;;;;;;;3.63;3.33;;;19.70;99.90;;;;;;5105092;28;20027;-35
2022/07/12 07:00:49;;;;;;;3.70;3.38;;;19.70;99.90;;;;;;5105597;28;20030;-35
2022/07/12 07:03:14;;;;;;;3.05;2.72;;;19.80;99.90;;;;;;5105810;28;20027;-36
2022/07/12 07:05:40;;;;;;;3.45;2.92;;;19.90;99.90;;;;;;5105923;28;20554;-35
2022/07/12 07:08:05;;;;;;;2.80;2.60;;;20.00;99.90;;;;;;5105983;28;20422;-35
2022/07/12 07:10:31;;;;;;;2.72;2.30;;;20.00;99.90;;;;;;5105343;28;20035;-35
2022/07/12 07:12:57;;;;;;;1.73;1.63;;;20.10;99.90;;;;;;5105863;28;20027;-35
2022/07/12 07:15:22;;;;;;;2.22;2.03;;;20.20;99.90;;;;;;5104964;28;20681;-34
2022/07/12 07:17:48;;;;;;;2.30;2.10;;;20.30;99.90;;;;;;5106139;28;20127;-34
2022/07/12 07:20:13;;;;;;;2.40;2.20;;;20.40;99.90;;;;;;5105874;28;20507;-35
2022/07/12 07:22:39;;;;;;;1.90;1.80;;;20.60;99.90;;;;;;5104168;28;20052;-35
2022/07/12 07:25:06;;;;;;;1.90;1.80;;;20.70;99.90;;;;;;5106217;28;20031;-35
2022/07/12 07:27:31;;;;;;;3.03;2.78;;;20.90;99.90;;;;;;5105053;28;20082;-35
2022/07/12 07:32:41;;;;;;;2.38;2.08;;;21.20;99.90;;;;;;5107031;28;20135;-35
2022/07/12 07:35:07;;;;;;;2.63;2.20;;;21.40;99.90;;;;;;5109563;28;20114;-35
2022/07/12 07:37:33;;;;;;;2.22;2.13;;;21.50;99.90;;;;;;5108479;28;20269;-36
2022/07/12 07:39:59;;;;;;;1.60;1.50;;;21.60;99.90;;;;;;5110293;28;20028;-35
2022/07/12 07:42:24;;;;;;;1.35;1.25;;;21.70;99.90;;;;;;5108856;28;20084;-41
2022/07/12 07:44:50;;;;;;;1.60;1.50;;;21.80;99.90;;;;;;5108517;28;20031;-35
2022/07/12 07:47:15;;;;;;;2.58;2.00;;;21.80;99.90;;;;;;5109845;28;20252;-35
2022/07/12 07:49:41;;;;;;;1.95;1.80;;;21.90;99.90;;;;;;5109825;28;20011;-36
2022/07/12 07:52:06;;;;;;;2.70;2.50;;;21.80;99.90;;;;;;5108289;28;20446;-35
2022/07/12 07:54:32;;;;;;;2.40;2.20;;;21.80;99.90;;;;;;5109418;28;20029;-35
2022/07/12 07:56:57;;;;;;;2.30;2.13;;;21.70;99.90;;;;;;5108622;28;20097;-35
2022/07/12 07:59:23;;;;;;;2.30;2.08;;;21.70;99.90;;;;;;5109207;28;20024;-36
2022/07/12 08:01:52;;;;;;;2.45;1.70;;;21.70;99.90;;;;;;5109728;28;20471;-34
2022/07/12 08:04:19;;;;;;;2.45;2.03;;;21.80;99.90;;;;;;5107113;28;20023;-34
2022/07/12 08:06:45;;;;;;;2.00;1.85;;;21.80;99.90;;;;;;5109151;28;20102;-36
2022/07/12 08:09:11;;;;;;;2.58;2.33;;;21.90;99.90;;;;;;5109382;28;20471;-35
2022/07/12 08:11:37;;;;;;;3.85;2.10;;;22.00;99.90;;;;;;5108253;28;20036;-35
2022/07/12 08:14:04;;;;;;;2.40;2.20;;;22.10;99.90;;;;;;5109747;28;20015;-35
2022/07/12 08:16:30;;;;;;;2.10;2.00;;;22.20;99.90;;;;;;5108731;28;20023;-35
2022/07/12 08:18:56;;;;;;;1.77;1.65;;;22.20;99.90;;;;;;5108406;28;20023;-35
2022/07/12 08:21:21;;;;;;;2.40;2.20;;;22.20;99.90;;;;;;5108761;28;20051;-36
2022/07/12 08:23:47;;;;;;;1.75;1.48;;;22.20;99.90;;;;;;5108245;28;20047;-37
2022/07/12 08:26:12;;;;;;;2.50;2.30;;;22.30;99.90;;;;;;5108353;28;20016;-36
2022/07/12 08:28:38;;;;;;;2.55;2.35;;;22.30;99.90;;;;;;5109221;28;20402;-35
2022/07/12 08:31:03;;;;;;;3.13;2.22;;;22.40;99.90;;;;;;5108891;28;20040;-37
2022/07/12 08:33:29;;;;;;;2.72;2.53;;;22.50;99.90;;;;;;5107470;28;20024;-42
2022/07/12 08:35:55;;;;;;;2.60;2.40;;;22.60;99.90;;;;;;5109036;28;20069;-34
2022/07/12 08:38:20;;;;;;;2.03;1.90;;;22.60;99.90;;;;;;5106320;28;20115;-34
2022/07/12 08:40:46;;;;;;;2.40;2.20;;;22.60;99.90;;;;;;5107953;28;20375;-36
2022/07/12 08:43:12;;;;;;;1.95;1.80;;;22.70;99.90;;;;;;5108723;28;20108;-36
2022/07/12 08:45:40;;;;;;;1.75;1.42;;;22.70;99.90;;;;;;5108380;28;20428;-34
2022/07/12 08:48:06;;;;;;;1.63;1.52;;;22.70;99.90;;;;;;5108074;28;20024;-34
2022/07/12 08:50:32;;;;;;;2.97;1.90;;;22.70;99.90;;;;;;5107969;28;20028;-36
2022/07/12 08:52:58;;;;;;;1.73;1.63;;;22.80;99.90;;;;;;5109422;28;20324;-35
2022/07/12 08:55:33;;;;;;;1.67;1.58;;;22.80;99.90;;;;;;5107281;28;20023;-36
2022/07/12 08:58:01;;;;;;;1.58;1.48;;;22.70;99.90;;;;;;5088982;28;20024;-35
2022/07/12 09:00:28;;;;;;;1.50;1.40;;;22.70;99.90;;;;;;5100775;28;20490;-37
2022/07/12 09:03:01;;;;;;;1.70;1.60;;;22.70;99.90;;;;;;5108200;28;20081;-35
2022/07/12 09:05:29;;;;;;;1.92;1.83;;;22.70;99.90;;;;;;5107506;28;20023;-35
2022/07/12 09:08:06;;;;;;;2.17;1.60;;;22.70;99.90;;;;;;5107857;28;20031;-35
2022/07/12 09:10:33;;;;;;;1.70;1.60;;;22.70;99.90;;;;;;5107216;28;20417;-38
2022/07/12 09:12:59;;;;;;;1.60;1.50;;;22.70;99.90;;;;;;5108148;28;20034;-37
2022/07/12 09:15:26;;;;;;;1.30;1.10;;;22.70;99.90;;;;;;5106578;28;20020;-35
2022/07/12 09:17:57;;;;;;;1.80;1.70;;;22.70;99.90;;;;;;5108004;28;20023;-34
2022/07/12 09:20:25;;;;;;;1.40;1.30;;;22.80;99.90;;;;;;5108005;28;20024;-36
2022/07/12 09:22:53;;;;;;;1.58;1.48;;;22.80;99.90;;;;;;5107277;28;20063;-35
2022/07/12 09:25:19;;;;;;;1.40;1.30;;;22.80;99.90;;;;;;5106401;28;20139;-35
2022/07/12 09:27:53;;;;;;;1.60;1.50;;;22.80;99.90;;;;;;5107458;28;20036;-36
2022/07/12 09:30:19;;;;;;;1.27;1.15;;;22.80;99.90;;;;;;5107039;28;20103;-36
2022/07/12 09:38:21;;;;;;;0.95;0.90;;;22.90;99.90;;;;;;5107301;28;20455;-36
2022/07/12 09:40:48;;;;;;;1.05;1.00;;;23.00;99.90;;;;;;5107376;28;20561;-36
2022/07/12 09:43:15;;;;;;;1.30;1.20;;;23.00;99.90;;;;;;5106623;28;20132;-37
2022/07/12 09:45:41;;;;;;;1.50;1.20;;;23.00;99.90;;;;;;5106775;28;20030;-35
2022/07/12 09:48:11;;;;;;;0.90;0.90;;;23.10;99.90;;;;;;5107963;28;20043;-34
2022/07/12 09:50:37;;;;;;;1.58;1.10;;;23.10;99.90;;;;;;5105687;28;20038;-35
2022/07/12 09:53:03;;;;;;;1.10;1.00;;;23.10;99.90;;;;;;5103580;28;20023;-35
2022/07/12 09:55:34;;;;;;;1.02;1.00;;;23.20;99.90;;;;;;5105791;28;20588;-35
2022/07/12 09:58:05;;;;;;;0.93;0.80;;;23.40;99.90;;;;;;5106576;28;20023;-35
2022/07/12 10:00:31;;;;;;;2.53;1.40;;;23.40;99.90;;;;;;5106753;28;20051;-35
2022/07/12 10:02:59;;;;;;;1.50;1.40;;;23.50;99.90;;;;;;5106632;28;20024;-36
2022/07/12 10:05:25;;;;;;;1.00;0.95;;;23.60;99.90;;;;;;5105692;28;20020;-35
2022/07/12 10:07:51;;;;;;;1.58;1.25;;;23.70;99.90;;;;;;5107163;28;20020;-35
2022/07/12 10:10:17;;;;;;;1.00;0.90;;;23.70;99.90;;;;;;5106440;28;20076;-35
2022/07/12 10:12:43;;;;;;;0.90;0.90;;;23.80;99.90;;;;;;5105576;28;20035;-34
2022/07/12 10:15:19;;;;;;;0.80;0.80;;;23.80;99.90;;;;;;5106937;28;20027;-33
2022/07/12 10:17:53;;;;;;;1.13;0.82;;;23.80;99.80;;;;;;5105792;28;20650;-35
2022/07/12 10:20:29;;;;;;;0.80;0.80;;;23.90;99.70;;;;;;5106800;28;20030;-35
2022/07/12 10:22:58;;;;;;;4.85;0.98;;;23.90;99.70;;;;;;5107097;28;20055;-35
2022/07/12 10:25:33;;;;;;;1.42;1.27;;;24.00;99.70;;;;;;5105635;28;20107;-35
2022/07/12 10:28:02;;;;;;;1.45;1.20;;;24.00;99.70;;;;;;5106442;28;20081;-35
2022/07/12 10:30:28;;;;;;;1.58;1.40;;;24.10;99.50;;;;;;5106461;28;20051;-35
2022/07/12 10:32:57;;;;;;;1.40;1.30;;;24.10;99.40;;;;;;5105655;28;20401;-36
2022/07/12 10:35:29;;;;;;;1.60;1.23;;;24.20;99.30;;;;;;5106284;28;20045;-35
2022/07/12 10:38:16;;;;;;;1.30;1.15;;;24.20;99.20;;;;;;5106728;28;20420;-35
2022/07/12 10:40:45;;;;;;;0.90;0.90;;;24.30;99.10;;;;;;5106289;28;20023;-36
2022/07/12 10:43:11;;;;;;;1.23;1.13;;;24.30;98.80;;;;;;5106289;28;20020;-36
2022/07/12 10:45:41;;;;;;;0.85;0.85;;;24.40;98.60;;;;;;5104673;28;20023;-36
2022/07/12 10:48:27;;;;;;;0.73;0.60;;;24.50;98.60;;;;;;5106754;28;20458;-35
2022/07/12 10:50:55;;;;;;;1.13;0.98;;;24.60;98.40;;;;;;5105674;28;20043;-36
2022/07/12 10:53:33;;;;;;;1.50;1.30;;;24.60;98.30;;;;;;5105376;28;20086;-37
2022/07/12 10:56:04;;;;;;;1.60;1.50;;;24.60;98.30;;;;;;5106128;28;20027;-34
2022/07/12 10:58:32;;;;;;;1.00;1.00;;;24.60;98.20;;;;;;5106320;28;20062;-35
2022/07/12 11:01:09;;;;;;;0.70;0.70;;;24.60;98.30;;;;;;5105789;28;20471;-38
2022/07/12 11:03:44;;;;;;;1.15;1.05;;;24.70;98.30;;;;;;5104883;28;20305;-36
2022/07/12 11:06:12;;;;;;;2.58;1.30;;;24.70;98.10;;;;;;5106001;28;20140;-36
2022/07/12 11:08:53;;;;;;;1.48;1.25;;;24.80;98.00;;;;;;5104734;28;20024;-36
2022/07/12 11:11:21;;;;;;;1.40;1.30;;;24.80;97.80;;;;;;5105996;28;20044;-36
2022/07/12 11:13:46;;;;;;;2.45;2.20;;;24.90;97.70;;;;;;5105029;28;20098;-34
2022/07/12 11:16:12;;;;;;;1.48;1.38;;;25.00;97.40;;;;;;5105821;28;20122;-35
2022/07/12 11:18:38;;;;;;;1.80;1.70;;;25.10;97.50;;;;;;5105454;28;20020;-36
2022/07/12 11:21:05;;;;;;;1.75;1.35;;;25.10;97.30;;;;;;5105758;28;20176;-34
2022/07/12 11:23:31;;;;;;;1.50;1.40;;;25.20;97.20;;;;;;5102765;28;20043;-35
2022/07/12 11:26:01;;;;;;;1.65;1.30;;;25.20;96.80;;;;;;5105398;28;20023;-34
2022/07/12 11:28:31;;;;;;;1.40;1.30;;;25.30;96.70;;;;;;5104455;28;20028;-34
2022/07/12 11:31:10;;;;;;;2.45;2.00;;;25.40;96.60;;;;;;5105426;28;20024;-35
2022/07/12 11:33:38;;;;;;;1.70;1.60;;;25.40;96.20;;;;;;5105687;28;20024;-35
2022/07/12 11:36:09;;;;;;;1.40;1.30;;;25.50;96.00;;;;;;5104939;28;20023;-36
2022/07/12 11:38:36;;;;;;;2.03;1.90;;;25.50;96.00;;;;;;5105163;28;20682;-34
2022/07/12 11:41:06;;;;;;;2.38;2.22;;;25.50;95.90;;;;;;5105536;28;20135;-34
2022/07/12 11:43:34;;;;;;;2.45;2.25;;;25.60;95.90;;;;;;5084689;28;20032;-35
2022/07/12 11:46:00;;;;;;;1.67;1.58;;;25.60;95.60;;;;;;5099975;28;20020;-35
2022/07/12 11:48:26;;;;;;;2.65;2.28;;;25.70;95.70;;;;;;5106029;28;20056;-36
2022/07/12 11:50:53;;;;;;;1.77;1.67;;;25.70;95.50;;;;;;5105013;28;20067;-35
2022/07/12 11:53:26;;;;;;;0.93;0.93;;;25.70;95.40;;;;;;5105236;28;20494;-35
2022/07/12 11:55:55;;;;;;;1.88;1.77;;;25.70;95.40;;;;;;5105372;28;20327;-36
2022/07/12 11:58:20;;;;;;;1.40;1.30;;;25.80;95.10;;;;;;5105388;28;20391;-34
2022/07/12 12:00:47;;;;;;;1.75;1.65;;;25.90;95.00;;;;;;5105227;28;20026;-34
2022/07/12 12:03:16;;;;;;;1.83;1.40;;;26.00;94.80;;;;;;5105061;28;20059;-38
2022/07/12 12:05:42;;;;;;;1.17;1.10;;;26.10;94.80;;;;;;5105299;28;20019;-35
2022/07/12 12:08:11;;;;;;;1.42;1.25;;;26.20;95.00;;;;;;5105452;28;20046;-34
2022/07/12 12:10:37;;;;;;;1.50;1.40;;;26.10;95.00;;;;;;5104401;28;20012;-35
2022/07/12 12:13:03;;;;;;;1.83;1.73;;;26.20;95.00;;;;;;5105777;28;20059;-36
2022/07/12 12:15:33;;;;;;;1.80;1.70;;;26.20;94.90;;;;;;5105118;28;20055;-34
2022/07/12 12:18:02;;;;;;;1.77;1.67;;;26.30;94.80;;;;;;5102180;28;20024;-35
2022/07/12 12:20:31;;;;;;;2.25;2.08;;;26.30;94.80;;;;;;5108615;28;20038;-36
2022/07/12 12:23:05;;;;;;;2.17;1.98;;;26.40;94.80;;;;;;5104302;28;20075;-36
2022/07/12 12:25:32;;;;;;;1.92;1.83;;;26.40;94.80;;;;;;5108207;28;20028;-35
2022/07/12 12:28:03;;;;;;;2.25;1.77;;;26.40;94.70;;;;;;5108610;28;20174;-35
2022/07/12 12:30:34;;;;;;;1.70;1.60;;;26.40;94.60;;;;;;5108622;28;20042;-35
2022/07/12 12:33:06;;;;;;;1.30;1.20;;;26.40;94.30;;;;;;5108043;28;20387;-35
2022/07/12 12:35:34;;;;;;;2.72;1.50;;;26.50;94.30;;;;;;5108907;28;20028;-36
2022/07/12 12:38:10;;;;;;;1.25;1.15;;;26.50;93.60;;;;;;5108602;28;20409;-35
2022/07/12 12:40:37;;;;;;;1.25;1.15;;;26.50;94.00;;;;;;5108317;28;20157;-35
2022/07/12 12:43:13;;;;;;;1.00;1.00;;;26.50;93.60;;;;;;5109076;28;20011;-35
2022/07/12 12:45:56;;;;;;;1.52;1.10;;;26.50;93.60;;;;;;5088342;28;20151;-35
2022/07/12 12:48:23;;;;;;;1.35;1.20;;;26.60;93.50;;;;;;5105214;28;20035;-35
2022/07/12 12:50:51;;;;;;;1.65;1.55;;;26.60;93.30;;;;;;5108442;28;20042;-35
2022/07/12 12:53:18;;;;;;;1.23;1.17;;;26.60;92.90;;;;;;5107243;28;20085;-37
2022/07/12 12:55:50;;;;;;;1.40;1.30;;;26.70;92.80;;;;;;5108253;28;21008;-35
2022/07/12 12:58:18;;;;;;;2.05;1.95;;;26.80;92.50;;;;;;5107206;28;20024;-37
2022/07/12 13:00:45;;;;;;;1.33;1.23;;;26.80;92.30;;;;;;5107421;28;20031;-36